createdAt,value
2018-03-28T00:01:24.099Z,100240.63
2018-03-28T00:03:49.892Z,100243.91
2018-03-28T00:06:15.702Z,100235.90
2018-03-28T00:08:41.495Z,100230.63
2018-03-28T00:11:07.294Z,100226.45
2018-03-28T00:13:33.107Z,100220.14
2018-03-28T00:15:58.890Z,100213.98
2018-03-28T00:18:24.669Z,100194.06
2018-03-28T00:20:50.487Z,100202.41
2018-03-28T00:23:16.290Z,100202.90
2018-03-28T00:25:42.076Z,100196.59
2018-03-28T00:28:07.976Z,100195.20
2018-03-28T00:30:33.779Z,100182.63
2018-03-28T00:32:59.558Z,100181.87
2018-03-28T00:35:25.367Z,100183.33
2018-03-28T00:37:51.186Z,100182.39
2018-03-28T00:40:16.969Z,100184.72
2018-03-28T00:42:42.762Z,100184.08
2018-03-28T00:45:08.543Z,100175.61
2018-03-28T00:47:35.193Z,100171.30
2018-03-28T00:50:01.000Z,100161.27
2018-03-28T00:52:26.795Z,100156.55
2018-03-28T00:54:52.594Z,100153.02
2018-03-28T00:57:18.390Z,100158.29
2018-03-28T00:59:44.175Z,100155.86
2018-03-28T01:02:09.960Z,100148.98
2018-03-28T01:04:36.031Z,100149.31
2018-03-28T01:07:01.843Z,100151.05
2018-03-28T01:09:27.635Z,100145.01
2018-03-28T01:11:53.442Z,100142.80
2018-03-28T01:14:19.228Z,100144.14
2018-03-28T01:16:45.019Z,100146.77
2018-03-28T01:19:10.949Z,100136.13
2018-03-28T01:21:36.766Z,100134.87
2018-03-28T01:24:02.557Z,100135.18
2018-03-28T01:26:28.362Z,100126.91
2018-03-28T01:28:54.130Z,100124.47
2018-03-28T01:31:19.918Z,100129.02
2018-03-28T01:33:45.722Z,100124.86
2018-03-28T01:36:11.512Z,100132.57
2018-03-28T01:38:37.323Z,100122.19
2018-03-28T01:41:03.126Z,100124.16
2018-03-28T01:43:28.923Z,100131.86
2018-03-28T01:45:54.752Z,100127.89
2018-03-28T01:48:20.554Z,100128.88
2018-03-28T01:50:46.348Z,100134.36
2018-03-28T01:53:12.154Z,100136.11
2018-03-28T01:55:37.947Z,100138.79
2018-03-28T01:58:03.764Z,100134.39
2018-03-28T02:00:29.577Z,100131.98
2018-03-28T02:02:55.368Z,100137.38
2018-03-28T02:05:21.160Z,100138.47
2018-03-28T02:07:46.967Z,100139.13
2018-03-28T02:10:12.768Z,100136.48
2018-03-28T02:12:38.554Z,100144.86
2018-03-28T02:15:04.376Z,100146.31
2018-03-28T02:17:30.177Z,100141.36
2018-03-28T02:19:55.968Z,100138.41
2018-03-28T02:22:21.760Z,100137.56
2018-03-28T02:24:47.547Z,100131.36
2018-03-28T02:27:13.339Z,100134.52
2018-03-28T02:29:39.182Z,100124.50
2018-03-28T02:32:04.985Z,100108.37
2018-03-28T02:34:30.806Z,100108.22
2018-03-28T02:36:56.611Z,100106.81
2018-03-28T02:39:22.431Z,100104.98
2018-03-28T02:41:48.238Z,100113.95
2018-03-28T02:44:14.035Z,100109.31
2018-03-28T02:46:39.841Z,100111.50
2018-03-28T02:49:05.642Z,100113.70
2018-03-28T02:51:31.444Z,100111.98
2018-03-28T02:53:57.317Z,100109.75
2018-03-28T02:56:23.108Z,100115.26
2018-03-28T02:58:48.902Z,100115.91
2018-03-28T03:01:14.726Z,100115.95
2018-03-28T03:03:40.517Z,100116.20
2018-03-28T03:06:06.325Z,100111.38
2018-03-28T03:08:32.368Z,100105.39
2018-03-28T03:10:58.448Z,100103.91
2018-03-28T03:13:24.243Z,100096.36
2018-03-28T03:15:50.079Z,100093.05
2018-03-28T03:18:15.875Z,100088.14
2018-03-28T03:20:41.685Z,100087.47
2018-03-28T03:23:07.527Z,100084.92
2018-03-28T03:25:33.325Z,100089.19
2018-03-28T03:27:59.131Z,100090.47
2018-03-28T03:30:24.927Z,100083.86
2018-03-28T03:32:50.762Z,100085.74
2018-03-28T03:35:16.559Z,100089.13
2018-03-28T03:37:42.354Z,100085.09
2018-03-28T03:40:08.169Z,100084.40
2018-03-28T03:42:33.985Z,100086.20
2018-03-28T03:44:59.754Z,100082.92
2018-03-28T03:47:25.544Z,100087.24
2018-03-28T03:49:51.327Z,100094.50
2018-03-28T03:52:17.111Z,100100.16
2018-03-28T03:54:43.087Z,100093.80
2018-03-28T03:57:08.894Z,100096.94
2018-03-28T03:59:34.690Z,100093.67
2018-03-28T04:02:00.556Z,100093.47
2018-03-28T04:04:26.366Z,100084.80
2018-03-28T04:06:52.143Z,100091.86
2018-03-28T04:09:17.962Z,100090.77
2018-03-28T04:11:43.750Z,100089.84
2018-03-28T04:14:09.527Z,100093.80
2018-03-28T04:16:35.594Z,100096.03
2018-03-28T04:19:01.395Z,100101.52
2018-03-28T04:21:27.184Z,100087.03
2018-03-28T04:23:53.023Z,100088.48
2018-03-28T04:26:18.837Z,100092.56
2018-03-28T04:28:44.764Z,100097.81
2018-03-28T04:31:10.564Z,100090.34
2018-03-28T04:33:36.352Z,100090.01
2018-03-28T04:36:02.159Z,100089.52
2018-03-28T04:38:33.223Z,100086.58
2018-03-28T04:40:59.093Z,100059.84
2018-03-28T04:43:24.910Z,100088.77
2018-03-28T04:45:50.711Z,100085.44
2018-03-28T04:48:16.536Z,100082.53
2018-03-28T04:50:42.323Z,100080.86
2018-03-28T04:53:08.096Z,100080.00
2018-03-28T04:55:33.898Z,100084.70
2018-03-28T04:57:59.692Z,100077.13
2018-03-28T05:00:25.487Z,100074.03
2018-03-28T05:02:51.971Z,100078.91
2018-03-28T05:05:18.052Z,100070.44
2018-03-28T05:07:43.851Z,100079.30
2018-03-28T05:10:09.649Z,100074.72
2018-03-28T05:12:35.440Z,100073.48
2018-03-28T05:15:01.226Z,100068.23
2018-03-28T05:17:27.016Z,100070.55
2018-03-28T05:19:52.823Z,100068.16
2018-03-28T05:22:18.657Z,100063.46
2018-03-28T05:24:44.451Z,100060.93
2018-03-28T05:27:10.276Z,100060.44
2018-03-28T05:29:36.072Z,100058.83
2018-03-28T05:32:01.855Z,100069.05
2018-03-28T05:34:27.671Z,100068.62
2018-03-28T05:36:53.464Z,100071.14
2018-03-28T05:39:19.260Z,100070.11
2018-03-28T05:41:45.071Z,100069.80
2018-03-28T05:44:10.865Z,100069.34
2018-03-28T05:46:36.656Z,100070.34
2018-03-28T05:49:02.499Z,100069.23
2018-03-28T05:51:28.297Z,100055.67
2018-03-28T05:53:54.091Z,100055.62
2018-03-28T05:56:19.948Z,100058.34
2018-03-28T05:58:45.732Z,100062.50
2018-03-28T06:01:11.536Z,100064.53
2018-03-28T06:03:37.362Z,100070.92
2018-03-28T06:06:03.178Z,100071.83
2018-03-28T06:08:28.970Z,100067.63
2018-03-28T06:10:54.767Z,100071.11
2018-03-28T06:13:20.553Z,100068.71
2018-03-28T06:15:46.332Z,100071.11
2018-03-28T06:18:12.148Z,100076.31
2018-03-28T06:20:37.942Z,100071.66
2018-03-28T06:23:03.750Z,100070.34
2018-03-28T06:25:29.562Z,100071.49
2018-03-28T06:27:55.339Z,100072.23
2018-03-28T06:30:21.155Z,100075.17
2018-03-28T06:32:46.963Z,100078.40
2018-03-28T06:35:12.738Z,100069.36
2018-03-28T06:37:38.532Z,100076.70
2018-03-28T06:40:04.376Z,100074.36
2018-03-28T06:42:30.224Z,100077.19
2018-03-28T06:44:56.007Z,100081.32
2018-03-28T06:47:22.377Z,100077.14
2018-03-28T06:49:48.142Z,100076.48
2018-03-28T06:52:13.929Z,100072.00
2018-03-28T06:54:39.751Z,100066.56
2018-03-28T06:57:05.573Z,100065.61
2018-03-28T06:59:31.373Z,100065.00
2018-03-28T07:01:57.199Z,100064.72
2018-03-28T07:04:23.021Z,100056.95
2018-03-28T07:06:48.820Z,100055.08
2018-03-28T07:09:14.623Z,100050.50
2018-03-28T07:11:40.417Z,100044.69
2018-03-28T07:14:06.271Z,100052.56
2018-03-28T07:16:32.067Z,100041.33
2018-03-28T07:18:57.875Z,100050.06
2018-03-28T07:21:23.704Z,100044.20
2018-03-28T07:23:49.494Z,100043.00
2018-03-28T07:26:15.282Z,100039.16
2018-03-28T07:28:41.060Z,100038.19
2018-03-28T07:31:07.250Z,100032.36
2018-03-28T07:33:33.311Z,100024.98
2018-03-28T07:35:59.102Z,100031.75
2018-03-28T07:38:25.011Z,100027.63
2018-03-28T07:40:51.171Z,100039.82
2018-03-28T07:43:16.958Z,100039.12
2018-03-28T07:45:42.752Z,100039.69
2018-03-28T07:48:08.612Z,100039.95
2018-03-28T07:50:34.415Z,100036.16
2018-03-28T07:53:00.207Z,100030.52
2018-03-28T07:55:26.045Z,100038.14
2018-03-28T07:57:51.839Z,100034.95
2018-03-28T08:00:17.649Z,100037.95
2018-03-28T08:02:43.452Z,100036.91
2018-03-28T08:05:09.250Z,100039.28
2018-03-28T08:07:35.053Z,100036.13
2018-03-28T08:10:00.859Z,100027.67
2018-03-28T08:12:26.663Z,100034.27
2018-03-28T08:14:52.450Z,100025.53
2018-03-28T08:17:18.267Z,100031.73
2018-03-28T08:19:44.052Z,100012.88
2018-03-28T08:22:09.893Z,100021.70
2018-03-28T08:24:35.623Z,100020.84
2018-03-28T08:27:01.416Z,100013.25
2018-03-28T08:29:27.235Z,100018.78
2018-03-28T08:31:53.014Z,100001.19
2018-03-28T08:34:18.807Z,100010.76
2018-03-28T08:36:44.693Z,100011.34
2018-03-28T08:39:10.480Z,100017.41
2018-03-28T08:41:36.288Z,100013.48
2018-03-28T08:44:02.354Z,100014.67
2018-03-28T08:46:28.144Z,100015.77
2018-03-28T08:48:53.919Z,100021.55
2018-03-28T08:51:19.712Z,100020.08
2018-03-28T08:53:45.496Z,100014.83
2018-03-28T08:56:11.554Z,100009.48
2018-03-28T08:58:37.356Z,100009.23
2018-03-28T09:01:03.163Z,100012.20
2018-03-28T09:03:29.015Z,100008.27
2018-03-28T09:05:54.816Z,100013.06
2018-03-28T09:08:20.598Z,100007.10
2018-03-28T09:10:46.396Z,100002.19
2018-03-28T09:13:12.475Z,100006.39
2018-03-28T09:15:38.263Z,100006.61
2018-03-28T09:18:04.075Z,100000.48
2018-03-28T09:20:30.135Z,100000.17
2018-03-28T09:22:55.919Z,100008.84
2018-03-28T09:25:21.712Z,99990.38
2018-03-28T09:27:47.523Z,99990.53
2018-03-28T09:30:13.309Z,99990.14
2018-03-28T09:32:39.091Z,99991.95
2018-03-28T09:35:04.920Z,99998.63
2018-03-28T09:37:30.723Z,100000.80
2018-03-28T09:39:56.655Z,99990.29
2018-03-28T09:42:23.006Z,99993.42
2018-03-28T09:44:48.801Z,99994.23
2018-03-28T09:47:14.586Z,99987.03
2018-03-28T09:49:40.394Z,99983.06
2018-03-28T09:52:06.190Z,99979.92
2018-03-28T09:54:31.975Z,99985.56
2018-03-28T09:56:58.144Z,99987.23
2018-03-28T09:59:23.937Z,99987.03
2018-03-28T10:01:55.810Z,99991.84
2018-03-28T10:04:21.632Z,99988.58
2018-03-28T10:06:47.451Z,99996.58
2018-03-28T10:09:13.285Z,99995.05
2018-03-28T10:11:39.023Z,100002.41
2018-03-28T10:14:04.843Z,100002.33
2018-03-28T10:16:30.635Z,100005.61
2018-03-28T10:18:56.434Z,100001.22
2018-03-28T10:21:22.253Z,99997.55
2018-03-28T10:23:48.048Z,100001.98
2018-03-28T10:26:13.837Z,99996.73
2018-03-28T10:28:39.902Z,99997.83
2018-03-28T10:31:05.696Z,99998.12
2018-03-28T10:33:31.511Z,99996.88
2018-03-28T10:35:57.338Z,100000.59
2018-03-28T10:38:23.147Z,99987.09
2018-03-28T10:40:48.957Z,99981.16
2018-03-28T10:43:14.888Z,99977.34
2018-03-28T10:45:40.699Z,99971.89
2018-03-28T10:48:06.519Z,99972.08
2018-03-28T10:50:32.339Z,99962.81
2018-03-28T10:52:58.124Z,99968.08
2018-03-28T10:55:23.918Z,99952.89
2018-03-28T10:57:49.755Z,99960.00
2018-03-28T11:00:15.559Z,99951.93
2018-03-28T11:02:41.419Z,99948.11
2018-03-28T11:05:07.328Z,99931.38
2018-03-28T11:07:33.182Z,99928.77
2018-03-28T11:09:58.996Z,99932.13
2018-03-28T11:12:24.829Z,99927.94
2018-03-28T11:14:50.714Z,99930.73
2018-03-28T11:17:16.562Z,99933.13
2018-03-28T11:19:42.942Z,99928.09
2018-03-28T11:22:08.826Z,99932.30
2018-03-28T11:24:34.805Z,99926.34
2018-03-28T11:27:00.615Z,99922.89
2018-03-28T11:29:26.418Z,99920.49
2018-03-28T11:31:53.052Z,99922.84
2018-03-28T11:34:18.859Z,99921.62
2018-03-28T11:36:46.076Z,99922.69
2018-03-28T11:39:11.959Z,99921.45
2018-03-28T11:41:38.884Z,99921.27
2018-03-28T11:44:05.578Z,99934.21
2018-03-28T11:46:31.461Z,99928.37
2018-03-28T11:48:57.291Z,99925.30
2018-03-28T11:51:23.104Z,99922.31
2018-03-28T11:53:48.915Z,99911.55
2018-03-28T11:56:14.740Z,99913.92
2018-03-28T11:58:40.580Z,99902.68
2018-03-28T12:01:07.705Z,99903.56
2018-03-28T12:03:33.504Z,99892.45
2018-03-28T12:05:59.308Z,99893.84
2018-03-28T12:08:25.435Z,99900.95
2018-03-28T12:10:51.284Z,99889.91
2018-03-28T12:13:17.156Z,99889.09
2018-03-28T12:15:42.986Z,99882.97
2018-03-28T12:18:09.358Z,99887.05
2018-03-28T12:20:35.215Z,99885.42
2018-03-28T12:23:01.162Z,99883.41
2018-03-28T12:25:27.485Z,99887.18
2018-03-28T12:27:53.620Z,99885.88
2018-03-28T12:30:19.447Z,99886.67
2018-03-28T12:32:45.285Z,99890.54
2018-03-28T12:35:11.113Z,99885.63
2018-03-28T12:37:36.935Z,99884.34
2018-03-28T12:40:02.770Z,99875.41
2018-03-28T12:42:29.211Z,99865.56
2018-03-28T12:44:55.615Z,99873.61
2018-03-28T12:47:21.583Z,99861.70
2018-03-28T12:49:47.584Z,99858.59
2018-03-28T12:52:13.466Z,99849.75
2018-03-28T12:54:39.228Z,99841.25
2018-03-28T12:57:05.067Z,99841.45
2018-03-28T12:59:31.262Z,99835.76
2018-03-28T13:01:57.533Z,99833.44
2018-03-28T13:04:23.375Z,99830.25
2018-03-28T13:06:49.781Z,99840.57
2018-03-28T13:09:15.722Z,99837.28
2018-03-28T13:11:41.539Z,99831.09
2018-03-28T13:14:07.364Z,99825.05
2018-03-28T13:16:33.181Z,99827.78
2018-03-28T13:18:59.621Z,99830.06
2018-03-28T13:21:25.476Z,99829.20
2018-03-28T13:23:51.288Z,99826.89
2018-03-28T13:26:17.252Z,99823.03
2018-03-28T13:28:43.168Z,99824.98
2018-03-28T13:31:09.840Z,99820.52
2018-03-28T13:33:35.675Z,99822.39
2018-03-28T13:36:01.499Z,99815.73
2018-03-28T13:38:27.307Z,99817.75
2018-03-28T13:40:53.328Z,99813.99
2018-03-28T13:43:19.139Z,99811.10
2018-03-28T13:45:44.980Z,99812.45
2018-03-28T13:48:10.769Z,99803.31
2018-03-28T13:50:36.579Z,99796.63
2018-03-28T13:53:03.056Z,99793.65
2018-03-28T13:55:29.117Z,99790.94
2018-03-28T13:57:54.959Z,99784.69
2018-03-28T14:00:21.311Z,99780.63
2018-03-28T14:02:47.301Z,99781.16
2018-03-28T14:05:13.090Z,99772.70
2018-03-28T14:07:38.935Z,99760.88
2018-03-28T14:10:05.293Z,99757.02
2018-03-28T14:12:31.182Z,99759.70
2018-03-28T14:14:57.039Z,99744.62
2018-03-28T14:17:24.187Z,99748.42
2018-03-28T14:19:50.011Z,99750.95
2018-03-28T14:22:15.831Z,99748.20
2018-03-28T14:24:42.148Z,99738.94
2018-03-28T14:27:07.983Z,99728.66
2018-03-28T14:29:34.347Z,99717.39
2018-03-28T14:32:00.190Z,99714.33
2018-03-28T14:34:25.978Z,99708.05
2018-03-28T14:36:51.775Z,99704.80
2018-03-28T14:39:17.607Z,99693.17
2018-03-28T14:41:43.436Z,99695.91
2018-03-28T14:44:09.232Z,99688.45
2018-03-28T14:46:35.055Z,99680.78
2018-03-28T14:49:00.903Z,99674.42
2018-03-28T14:51:26.713Z,99668.28
2018-03-28T14:53:53.076Z,99665.33
2018-03-28T14:56:18.887Z,99662.08
2018-03-28T14:58:44.808Z,99659.69
2018-03-28T15:01:10.618Z,99635.84
2018-03-28T15:03:36.436Z,99655.23
2018-03-28T15:06:02.475Z,99652.14
2018-03-28T15:08:28.264Z,99642.50
2018-03-28T15:10:54.085Z,99638.45
2018-03-28T15:13:19.900Z,99631.64
2018-03-28T15:15:45.690Z,99627.27
2018-03-28T15:18:11.495Z,99630.12
2018-03-28T15:20:37.337Z,99618.53
2018-03-28T15:23:03.135Z,99608.54
2018-03-28T15:25:28.941Z,99604.58
2018-03-28T15:27:54.755Z,99598.46
2018-03-28T15:30:20.567Z,99574.69
2018-03-28T15:32:46.370Z,99584.98
2018-03-28T15:35:12.172Z,99587.28
2018-03-28T15:37:37.973Z,99579.25
2018-03-28T15:40:03.772Z,99572.59
2018-03-28T15:42:29.618Z,99568.77
2018-03-28T15:44:55.460Z,99558.08
2018-03-28T15:47:21.263Z,99549.97
2018-03-28T15:49:47.068Z,99552.22
2018-03-28T15:52:12.941Z,99544.86
2018-03-28T15:54:38.750Z,99538.98
2018-03-28T15:57:04.547Z,99538.05
2018-03-28T15:59:30.371Z,99525.44
2018-03-28T16:01:56.202Z,99522.53
2018-03-28T16:04:22.022Z,99522.94
2018-03-28T16:06:47.815Z,99512.33
2018-03-28T16:09:13.594Z,99504.46
2018-03-28T16:11:39.574Z,99503.31
2018-03-28T16:14:05.378Z,99503.58
2018-03-28T16:16:31.164Z,99501.76
2018-03-28T16:18:57.000Z,99495.39
2018-03-28T16:21:22.794Z,99497.16
2018-03-28T16:23:48.595Z,99496.55
2018-03-28T16:26:14.401Z,99492.49
2018-03-28T16:28:40.199Z,99496.85
2018-03-28T16:31:06.018Z,99494.01
2018-03-28T16:33:31.809Z,99495.59
2018-03-28T16:35:57.598Z,99485.03
2018-03-28T16:38:23.399Z,99488.31
2018-03-28T16:40:49.195Z,99479.30
2018-03-28T16:43:14.991Z,99474.64
2018-03-28T16:45:40.814Z,99473.33
2018-03-28T16:48:06.674Z,99471.62
2018-03-28T16:50:32.487Z,99469.99
2018-03-28T16:52:58.275Z,99471.41
2018-03-28T16:55:24.135Z,99460.97
2018-03-28T16:57:49.878Z,99458.53
2018-03-28T17:00:15.699Z,99461.02
2018-03-28T17:02:41.811Z,99455.84
2018-03-28T17:05:07.588Z,99459.81
2018-03-28T17:07:33.387Z,99454.95
2018-03-28T17:09:59.485Z,99452.77
2018-03-28T17:12:25.266Z,99448.35
2018-03-28T17:14:51.079Z,99448.41
2018-03-28T17:17:16.893Z,99445.44
2018-03-28T17:19:42.677Z,99442.64
2018-03-28T17:22:08.479Z,99440.41
2018-03-28T17:24:34.275Z,99436.50
2018-03-28T17:27:00.095Z,99438.09
2018-03-28T17:29:25.905Z,99435.48
2018-03-28T17:31:51.686Z,99429.45
2018-03-28T17:34:17.671Z,99428.59
2018-03-28T17:36:43.499Z,99434.61
2018-03-28T17:39:09.312Z,99428.13
2018-03-28T17:41:35.144Z,99423.91
2018-03-28T17:44:00.904Z,99416.72
2018-03-28T17:46:26.719Z,99420.91
2018-03-28T17:48:52.578Z,99414.73
2018-03-28T17:51:18.396Z,99413.33
2018-03-28T17:53:44.521Z,99407.99
2018-03-28T17:56:10.311Z,99407.45
2018-03-28T17:58:36.101Z,99409.39
2018-03-28T18:01:01.924Z,99407.16
2018-03-28T18:03:27.719Z,99411.26
2018-03-28T18:05:53.551Z,99409.94
2018-03-28T18:08:19.344Z,99410.58
2018-03-28T18:10:45.153Z,99414.67
2018-03-28T18:13:11.272Z,99414.87
2018-03-28T18:15:37.081Z,99411.83
2018-03-28T18:18:02.887Z,99413.41
2018-03-28T18:20:28.699Z,99416.13
2018-03-28T18:22:54.475Z,99412.80
2018-03-28T18:25:20.271Z,99403.86
2018-03-28T18:27:46.285Z,99401.61
2018-03-28T18:30:12.075Z,99401.42
2018-03-28T18:32:37.870Z,99399.66
2018-03-28T18:35:03.707Z,99397.53
2018-03-28T18:37:29.495Z,99392.91
2018-03-28T18:39:55.301Z,99391.72
2018-03-28T18:42:21.155Z,99392.95
2018-03-28T18:44:46.960Z,99388.86
2018-03-28T18:47:12.771Z,99392.91
2018-03-28T18:49:38.567Z,99387.25
2018-03-28T18:52:04.390Z,99382.92
2018-03-28T18:54:30.207Z,99387.81
2018-03-28T18:56:56.021Z,99381.50
2018-03-28T18:59:21.830Z,99378.45
2018-03-28T19:01:47.628Z,99376.83
2018-03-28T19:04:13.450Z,99381.36
2018-03-28T19:06:39.232Z,99369.60
2018-03-28T19:09:05.063Z,99365.56
2018-03-28T19:11:30.877Z,99364.66
2018-03-28T19:13:56.663Z,99361.77
2018-03-28T19:16:22.450Z,99355.28
2018-03-28T19:18:48.272Z,99363.73
2018-03-28T19:21:14.412Z,99362.72
2018-03-28T19:23:40.178Z,99349.52
2018-03-28T19:26:05.985Z,99350.20
2018-03-28T19:28:31.798Z,99339.02
2018-03-28T19:30:57.618Z,99335.38
2018-03-28T19:33:23.407Z,99329.75
2018-03-28T19:35:49.227Z,99327.66
2018-03-28T19:38:15.029Z,99324.63
2018-03-28T19:40:40.827Z,99320.20
2018-03-28T19:43:06.645Z,99321.20
2018-03-28T19:45:32.454Z,99312.08
2018-03-28T19:47:58.257Z,99312.75
2018-03-28T19:50:24.311Z,99317.89
2018-03-28T19:52:50.094Z,99308.88
2018-03-28T19:55:15.883Z,99295.32
2018-03-28T19:57:41.690Z,99288.22
2018-03-28T20:00:07.568Z,99281.64
2018-03-28T20:02:33.359Z,99284.41
2018-03-28T20:04:59.169Z,99272.52
2018-03-28T20:07:24.960Z,99271.72
2018-03-28T20:09:50.755Z,99274.41
2018-03-28T20:12:16.584Z,99268.63
2018-03-28T20:14:42.369Z,99252.51
2018-03-28T20:17:08.153Z,99257.70
2018-03-28T20:19:33.963Z,99241.11
2018-03-28T20:21:59.761Z,99232.19
2018-03-28T20:24:25.552Z,99228.41
2018-03-28T20:26:51.361Z,99225.52
2018-03-28T20:29:17.140Z,99218.22
2018-03-28T20:31:42.947Z,99217.34
2018-03-28T20:34:08.763Z,99214.66
2018-03-28T20:36:34.571Z,99205.12
2018-03-28T20:39:00.383Z,99206.09
2018-03-28T20:41:26.212Z,99199.59
2018-03-28T20:43:52.012Z,99190.88
2018-03-28T20:46:17.808Z,99190.80
2018-03-28T20:48:43.849Z,99186.88
2018-03-28T20:51:09.636Z,99182.89
2018-03-28T20:53:35.432Z,99177.58
2018-03-28T20:56:01.249Z,99179.33
2018-03-28T20:58:27.084Z,99177.53
2018-03-28T21:00:52.912Z,99173.02
2018-03-28T21:03:18.718Z,99165.76
2018-03-28T21:05:44.532Z,99160.28
2018-03-28T21:08:10.340Z,99157.20
2018-03-28T21:10:36.163Z,99158.21
2018-03-28T21:13:01.959Z,99154.55
2018-03-28T21:15:27.752Z,99146.20
2018-03-28T21:17:53.564Z,99147.02
2018-03-28T21:20:19.360Z,99139.50
2018-03-28T21:22:45.165Z,99141.46
2018-03-28T21:25:10.967Z,99135.89
2018-03-28T21:27:36.776Z,99126.42
2018-03-28T21:30:02.598Z,99122.72
2018-03-28T21:32:28.679Z,99118.67
2018-03-28T21:34:54.479Z,99112.52
2018-03-28T21:37:20.274Z,99114.16
2018-03-28T21:39:46.083Z,99101.80
2018-03-28T21:42:11.883Z,99096.06
2018-03-28T21:44:37.669Z,99080.61
2018-03-28T21:47:03.486Z,99075.22
2018-03-28T21:49:29.267Z,99070.20
2018-03-28T21:51:55.060Z,99063.87
2018-03-28T21:54:21.248Z,99059.09
2018-03-28T21:56:47.046Z,99059.72
2018-03-28T21:59:12.860Z,99058.50
2018-03-28T22:01:38.686Z,99050.52
2018-03-28T22:04:04.517Z,99053.60
2018-03-28T22:06:30.312Z,99048.72
2018-03-28T22:08:56.110Z,99041.36
2018-03-28T22:11:21.923Z,99037.92
2018-03-28T22:13:47.722Z,99041.27
2018-03-28T22:16:13.524Z,99036.33
2018-03-28T22:18:39.355Z,99037.38
2018-03-28T22:21:05.151Z,99034.91
2018-03-28T22:23:30.963Z,99030.02
2018-03-28T22:25:56.855Z,99021.64
2018-03-28T22:28:22.638Z,99014.53
2018-03-28T22:30:48.435Z,99005.40
2018-03-28T22:33:14.227Z,98999.78
2018-03-28T22:35:40.039Z,99006.58
2018-03-28T22:38:05.843Z,98997.13
2018-03-28T22:40:31.632Z,98997.45
2018-03-28T22:42:57.441Z,98996.22
2018-03-28T22:45:23.266Z,98993.45
2018-03-28T22:47:49.066Z,98991.36
2018-03-28T22:50:14.889Z,99003.30
2018-03-28T22:52:40.711Z,99001.00
2018-03-28T22:55:06.510Z,98999.88
2018-03-28T22:57:32.286Z,98999.39
2018-03-28T22:59:58.116Z,98998.14
2018-03-28T23:02:23.916Z,99005.77
2018-03-28T23:04:49.704Z,98995.98
2018-03-28T23:07:15.518Z,99001.06
2018-03-28T23:09:41.343Z,99005.11
2018-03-28T23:12:07.145Z,99004.00
2018-03-28T23:14:32.942Z,99006.62
2018-03-28T23:16:58.744Z,99005.28
2018-03-28T23:19:24.542Z,99006.64
2018-03-28T23:21:50.336Z,98996.74
2018-03-28T23:24:16.140Z,98996.66
2018-03-28T23:26:42.230Z,98997.13
2018-03-28T23:29:08.018Z,99000.46
2018-03-28T23:31:33.806Z,98994.27
2018-03-28T23:33:59.607Z,98999.99
2018-03-28T23:36:25.405Z,98996.53
2018-03-28T23:38:51.183Z,98999.52
2018-03-28T23:41:16.980Z,99003.31
2018-03-28T23:43:42.790Z,99004.45
2018-03-28T23:46:08.587Z,99003.02
2018-03-28T23:48:34.384Z,98998.62
2018-03-28T23:51:00.421Z,98999.44
2018-03-28T23:53:26.199Z,99000.84
2018-03-28T23:55:51.986Z,99001.73
2018-03-28T23:58:18.187Z,98995.30
